createdAt,value
2022-11-15T00:02:19.252Z,97917.53
2022-11-15T00:05:39.893Z,97905.88
2022-11-15T00:09:01.580Z,97901.28
2022-11-15T00:12:22.346Z,97896.78
2022-11-15T00:15:43.207Z,97894.69
2022-11-15T00:19:04.054Z,97888.56
2022-11-15T00:22:24.634Z,97898.09
2022-11-15T00:25:45.487Z,97891.84
2022-11-15T00:29:06.646Z,97892.50
2022-11-15T00:32:27.602Z,97883.69
2022-11-15T00:35:48.193Z,97884.53
2022-11-15T00:39:08.829Z,97882.66
2022-11-15T00:42:29.506Z,97863.41
2022-11-15T00:45:49.883Z,97879.91
2022-11-15T00:49:10.183Z,97868.41
2022-11-15T00:52:30.880Z,97865.78
2022-11-15T00:55:55.432Z,97862.94
2022-11-15T00:59:17.303Z,97864.41
2022-11-15T01:02:37.630Z,97861.63
2022-11-15T01:06:00.872Z,97856.19
2022-11-15T01:09:21.376Z,97858.31
2022-11-15T01:12:42.191Z,97851.63
2022-11-15T01:16:14.721Z,97855.53
2022-11-15T01:19:35.143Z,97852.34
2022-11-15T01:22:56.387Z,97845.72
2022-11-15T01:26:17.335Z,97850.59
2022-11-15T01:29:37.878Z,97837.47
2022-11-15T01:32:58.114Z,97847.59
2022-11-15T01:36:22.859Z,97843.19
2022-11-15T01:39:43.564Z,97845.66
2022-11-15T01:43:22.936Z,97840.25
2022-11-15T01:46:47.720Z,97837.66
2022-11-15T01:50:13.486Z,97833.19
2022-11-15T01:53:37.460Z,97833.94
2022-11-15T01:57:03.285Z,97830.38
2022-11-15T02:00:23.860Z,97833.75
2022-11-15T02:03:58.278Z,97827.47
2022-11-15T02:07:21.328Z,97834.38
2022-11-15T02:10:41.880Z,97837.72
2022-11-15T02:14:04.564Z,97833.34
2022-11-15T02:17:44.078Z,97826.25
2022-11-15T02:21:15.388Z,97825.34
2022-11-15T02:25:26.875Z,97824.41
2022-11-15T02:28:47.333Z,97822.72
2022-11-15T02:32:19.004Z,97820.13
2022-11-15T02:35:53.811Z,97833.94
2022-11-15T02:39:51.321Z,97837.34
2022-11-15T02:43:35.300Z,97838.19
2022-11-15T02:47:15.612Z,97840.78
2022-11-15T02:50:36.492Z,97828.56
2022-11-15T02:53:57.160Z,97823.22
2022-11-15T02:57:20.994Z,97829.41
2022-11-15T03:00:53.898Z,97827.53
2022-11-15T03:04:37.741Z,97818.75
2022-11-15T03:08:33.634Z,97811.69
2022-11-15T03:12:02.357Z,97809.13
2022-11-15T03:15:30.669Z,97810.06
2022-11-15T03:18:58.060Z,97804.00
2022-11-15T03:22:22.702Z,97805.75
2022-11-15T03:25:49.682Z,97808.28
2022-11-15T03:29:18.412Z,97792.59
2022-11-15T03:32:46.283Z,97787.28
2022-11-15T03:36:07.413Z,97788.97
2022-11-15T03:39:30.218Z,97782.81
2022-11-15T03:42:57.981Z,97788.06
2022-11-15T03:46:33.005Z,97789.56
2022-11-15T03:50:10.125Z,97786.00
2022-11-15T03:53:32.181Z,97787.69
2022-11-15T03:56:53.222Z,97776.41
2022-11-15T04:00:14.171Z,97767.69
2022-11-15T04:03:34.919Z,97761.63
2022-11-15T04:06:55.663Z,97765.09
2022-11-15T04:10:16.608Z,97761.75
2022-11-15T04:13:37.170Z,97761.53
2022-11-15T04:16:57.538Z,97766.88
2022-11-15T04:20:37.795Z,97754.63
2022-11-15T04:24:13.446Z,97765.00
2022-11-15T04:27:34.129Z,97760.63
2022-11-15T04:30:54.623Z,97759.69
2022-11-15T04:34:15.043Z,97755.31
2022-11-15T04:37:35.448Z,97752.59
2022-11-15T04:40:55.929Z,97744.69
2022-11-15T04:44:16.322Z,97743.63
2022-11-15T04:47:37.502Z,97732.38
2022-11-15T04:50:57.973Z,97727.13
2022-11-15T04:54:18.582Z,97728.78
2022-11-15T04:57:39.547Z,97728.78
2022-11-15T05:01:09.428Z,97735.72
2022-11-15T05:04:30.126Z,97734.88
2022-11-15T05:07:50.720Z,97734.97
2022-11-15T05:11:11.526Z,97728.78
2022-11-15T05:14:32.211Z,97730.47
2022-11-15T05:17:52.545Z,97725.09
2022-11-15T05:21:15.682Z,97722.53
2022-11-15T05:24:36.106Z,97727.78
2022-11-15T05:27:57.098Z,97717.22
2022-11-15T05:31:17.915Z,97718.06
2022-11-15T05:34:38.478Z,97718.84
2022-11-15T05:37:58.961Z,97708.38
2022-11-15T05:41:23.881Z,97706.69
2022-11-15T05:44:49.811Z,97695.47
2022-11-15T05:48:11.627Z,97703.31
2022-11-15T05:51:32.095Z,97705.84
2022-11-15T05:54:53.961Z,97716.22
2022-11-15T05:58:14.522Z,97710.16
2022-11-15T06:01:35.192Z,97711.75
2022-11-15T06:04:55.992Z,97708.28
2022-11-15T06:08:16.820Z,97710.06
2022-11-15T06:11:37.524Z,97718.63
2022-11-15T06:14:58.100Z,97711.75
2022-11-15T06:18:18.395Z,97719.47
2022-11-15T06:21:39.192Z,97719.59
2022-11-15T06:25:04.956Z,97715.94
2022-11-15T06:28:29.390Z,97720.31
2022-11-15T06:31:50.202Z,97716.78
2022-11-15T06:35:11.077Z,97722.84
2022-11-15T06:38:31.695Z,97719.31
2022-11-15T06:41:52.669Z,97723.63
2022-11-15T06:45:13.435Z,97724.38
2022-11-15T06:48:35.355Z,97714.00
2022-11-15T06:51:56.042Z,97718.22
2022-11-15T06:55:17.009Z,97718.00
2022-11-15T06:58:37.740Z,97719.63
2022-11-15T07:01:58.515Z,97724.69
2022-11-15T07:05:19.207Z,97721.06
2022-11-15T07:08:39.662Z,97718.16
2022-11-15T07:12:04.589Z,97712.75
2022-11-15T07:15:27.805Z,97719.66
2022-11-15T07:18:48.216Z,97712.75
2022-11-15T07:22:08.769Z,97712.66
2022-11-15T07:25:29.319Z,97706.28
2022-11-15T07:28:49.898Z,97713.22
2022-11-15T07:32:10.984Z,97709.56
2022-11-15T07:35:31.970Z,97699.78
2022-11-15T07:38:52.715Z,97696.00
2022-11-15T07:42:31.565Z,97692.56
2022-11-15T07:45:57.534Z,97688.06
2022-11-15T07:49:19.483Z,97689.47
2022-11-15T07:52:40.188Z,97698.00
2022-11-15T07:56:00.582Z,97696.13
2022-11-15T07:59:20.993Z,97695.19
2022-11-15T08:02:42.296Z,97690.88
2022-11-15T08:06:03.686Z,97687.44
2022-11-15T08:09:24.241Z,97689.66
2022-11-15T08:12:45.095Z,97691.44
2022-11-15T08:16:06.720Z,97684.63
2022-11-15T08:19:27.742Z,97694.91
2022-11-15T08:22:48.190Z,97696.41
2022-11-15T08:26:09.968Z,97677.06
2022-11-15T08:29:30.438Z,97676.16
2022-11-15T08:32:53.065Z,97677.94
2022-11-15T08:36:18.196Z,97676.22
2022-11-15T08:39:39.160Z,97683.16
2022-11-15T08:43:03.496Z,97680.69
2022-11-15T08:46:24.618Z,97684.91
2022-11-15T08:49:45.349Z,97680.34
2022-11-15T08:53:08.418Z,97684.56
2022-11-15T08:56:28.959Z,97683.72
2022-11-15T08:59:49.624Z,97679.50
2022-11-15T09:03:10.672Z,97677.81
2022-11-15T09:06:31.649Z,97681.81
2022-11-15T09:09:52.342Z,97667.88
2022-11-15T09:13:12.765Z,97663.97
2022-11-15T09:16:33.282Z,97655.91
2022-11-15T09:19:53.815Z,97657.03
2022-11-15T09:23:14.176Z,97660.69
2022-11-15T09:26:34.548Z,97659.00
2022-11-15T09:29:55.139Z,97660.69
2022-11-15T09:33:15.634Z,97657.97
2022-11-15T09:36:36.457Z,97645.91
2022-11-15T09:39:56.832Z,97651.78
2022-11-15T09:43:26.028Z,97641.13
2022-11-15T09:46:58.469Z,97631.41
2022-11-15T09:50:11.119Z,97637.22
2022-11-15T09:53:17.465Z,97623.91
2022-11-15T09:56:23.259Z,97616.81
2022-11-15T10:00:12.323Z,97623.72
2022-11-15T10:03:34.821Z,97611.66
2022-11-15T10:06:42.109Z,97612.31
2022-11-15T10:10:05.802Z,97608.47
2022-11-15T10:13:23.409Z,97598.44
2022-11-15T10:16:49.990Z,97589.25
2022-11-15T10:20:28.660Z,97588.03
2022-11-15T10:23:33.083Z,97576.81
2022-11-15T10:26:35.113Z,97576.47
2022-11-15T10:29:37.302Z,97573.06
2022-11-15T10:32:41.830Z,97562.41
2022-11-15T10:35:43.981Z,97550.03
2022-11-15T10:38:57.286Z,97561.03
2022-11-15T10:42:31.402Z,97560.72
2022-11-15T10:45:35.532Z,97556.59
2022-11-15T10:48:37.555Z,97544.97
2022-11-15T10:51:49.180Z,97540.59
2022-11-15T10:55:28.825Z,97534.31
2022-11-15T10:58:35.827Z,97525.88
2022-11-15T11:01:48.084Z,97523.81
2022-11-15T11:04:53.418Z,97523.69
2022-11-15T11:08:01.093Z,97520.97
2022-11-15T11:11:04.878Z,97512.91
2022-11-15T11:14:18.317Z,97520.06
2022-11-15T11:17:38.213Z,97506.53
2022-11-15T11:20:46.814Z,97504.00
2022-11-15T11:24:32.580Z,97499.72
2022-11-15T11:28:00.687Z,97496.03
2022-11-15T11:31:14.677Z,97495.19
2022-11-15T11:34:58.483Z,97489.66
2022-11-15T11:38:35.245Z,97489.22
2022-11-15T11:42:15.971Z,97482.75
2022-11-15T11:45:32.821Z,97486.00
2022-11-15T11:49:04.064Z,97473.38
2022-11-15T11:52:11.951Z,97463.72
2022-11-15T11:55:14.512Z,97460.81
2022-11-15T11:58:43.167Z,97454.81
2022-11-15T12:01:46.314Z,97449.69
2022-11-15T12:04:54.597Z,97445.59
2022-11-15T12:08:07.979Z,97433.44
2022-11-15T12:11:17.918Z,97430.72
2022-11-15T12:14:28.890Z,97421.88
2022-11-15T12:17:33.213Z,97421.78
2022-11-15T12:20:40.866Z,97418.00
2022-11-15T12:23:48.920Z,97414.00
2022-11-15T12:26:57.622Z,97412.31
2022-11-15T12:30:04.227Z,97411.38
2022-11-15T12:33:06.320Z,97404.44
2022-11-15T12:36:23.412Z,97400.69
2022-11-15T12:40:13.637Z,97399.75
2022-11-15T12:43:16.251Z,97384.84
2022-11-15T12:46:24.525Z,97388.31
2022-11-15T12:49:29.652Z,97391.44
2022-11-15T12:52:31.685Z,97390.41
2022-11-15T12:55:34.531Z,97378.03
2022-11-15T12:58:57.682Z,97365.84
2022-11-15T13:02:01.319Z,97365.00
2022-11-15T13:05:21.586Z,97372.88
2022-11-15T13:08:41.131Z,97359.78
2022-11-15T13:11:48.850Z,97354.53
2022-11-15T13:14:57.997Z,97349.38
2022-11-15T13:18:01.100Z,97352.34
2022-11-15T13:21:24.534Z,97344.56
2022-11-15T13:24:26.659Z,97348.25
2022-11-15T13:27:29.880Z,97344.56
2022-11-15T13:30:32.571Z,97344.69
2022-11-15T13:33:37.726Z,97353.38
2022-11-15T13:36:39.847Z,97349.81
2022-11-15T13:39:41.944Z,97343.63
2022-11-15T13:42:45.867Z,97335.66
2022-11-15T13:46:14.252Z,97329.34
2022-11-15T13:49:16.296Z,97325.88
2022-11-15T13:52:18.480Z,97325.28
2022-11-15T13:55:23.749Z,97323.50
2022-11-15T13:58:25.963Z,97312.56
2022-11-15T14:01:32.115Z,97305.69
2022-11-15T14:04:40.798Z,97296.75
2022-11-15T14:07:57.837Z,97297.47
2022-11-15T14:11:20.924Z,97291.91
2022-11-15T14:14:25.378Z,97304.19
2022-11-15T14:17:30.132Z,97310.47
2022-11-15T14:20:38.184Z,97306.28
2022-11-15T14:23:41.468Z,97307.47
2022-11-15T14:26:43.581Z,97303.47
2022-11-15T14:29:45.623Z,97309.78
2022-11-15T14:32:50.366Z,97300.34
2022-11-15T14:35:53.814Z,97288.94
2022-11-15T14:38:56.281Z,97288.78
2022-11-15T14:41:58.268Z,97286.16
2022-11-15T14:45:00.288Z,97287.84
2022-11-15T14:48:02.294Z,97285.97
2022-11-15T14:51:04.671Z,97280.72
2022-11-15T14:54:06.650Z,97278.94
2022-11-15T14:57:08.703Z,97273.69
2022-11-15T15:00:11.356Z,97273.69
2022-11-15T15:03:16.089Z,97265.84
2022-11-15T15:06:18.688Z,97270.97
2022-11-15T15:09:20.730Z,97271.72
2022-11-15T15:12:24.404Z,97263.09
2022-11-15T15:15:32.740Z,97259.53
2022-11-15T15:18:34.830Z,97262.06
2022-11-15T15:21:37.724Z,97260.28
2022-11-15T15:24:39.899Z,97256.81
2022-11-15T15:27:41.877Z,97254.19
2022-11-15T15:30:44.163Z,97249.06
2022-11-15T15:33:46.356Z,97250.72
2022-11-15T15:36:48.512Z,97251.56
2022-11-15T15:39:52.691Z,97255.03
2022-11-15T15:42:54.723Z,97253.25
2022-11-15T15:45:56.848Z,97247.03
2022-11-15T15:48:58.850Z,97238.22
2022-11-15T15:52:00.915Z,97243.47
2022-11-15T15:55:03.058Z,97243.34
2022-11-15T15:58:06.304Z,97243.34
2022-11-15T16:01:08.445Z,97232.75
2022-11-15T16:04:10.675Z,97232.75
2022-11-15T16:07:24.887Z,97220.38
2022-11-15T16:10:33.002Z,97210.84
2022-11-15T16:13:35.084Z,97215.97
2022-11-15T16:16:38.005Z,97213.34
2022-11-15T16:19:40.102Z,97209.78
2022-11-15T16:22:42.295Z,97203.59
2022-11-15T16:25:59.012Z,97205.38
2022-11-15T16:29:01.091Z,97204.53
2022-11-15T16:32:03.152Z,97208.09
2022-11-15T16:35:05.850Z,97210.63
2022-11-15T16:38:16.110Z,97207.06
2022-11-15T16:41:19.469Z,97210.63
2022-11-15T16:44:21.936Z,97203.69
2022-11-15T16:47:25.219Z,97208.94
2022-11-15T16:50:31.395Z,97208.94
2022-11-15T16:53:33.621Z,97208.94
2022-11-15T16:56:35.998Z,97198.56
2022-11-15T16:59:38.639Z,97205.59
2022-11-15T17:02:40.718Z,97206.53
2022-11-15T17:05:42.957Z,97204.75
2022-11-15T17:08:46.726Z,97204.75
2022-11-15T17:11:48.965Z,97196.88
2022-11-15T17:14:51.479Z,97193.31
2022-11-15T17:17:55.103Z,97191.53
2022-11-15T17:20:57.176Z,97187.25
2022-11-15T17:24:00.266Z,97190.06
2022-11-15T17:27:02.359Z,97186.41
2022-11-15T17:30:06.315Z,97181.88
2022-11-15T17:33:08.956Z,97188.06
2022-11-15T17:36:12.968Z,97184.50
2022-11-15T17:39:15.296Z,97181.03
2022-11-15T17:42:17.578Z,97171.41
2022-11-15T17:45:19.977Z,97166.03
2022-11-15T17:48:22.371Z,97160.66
2022-11-15T17:51:25.666Z,97159.13
2022-11-15T17:54:31.753Z,97162.69
2022-11-15T17:57:37.203Z,97155.75
2022-11-15T18:00:39.464Z,97155.75
2022-11-15T18:03:42.083Z,97149.56
2022-11-15T18:06:44.543Z,97143.38
2022-11-15T18:09:46.873Z,97148.63
2022-11-15T18:12:49.095Z,97147.69
2022-11-15T18:15:57.992Z,97143.50
2022-11-15T18:19:01.453Z,97134.69
2022-11-15T18:22:06.067Z,97138.16
2022-11-15T18:25:09.298Z,97140.75
2022-11-15T18:28:11.930Z,97137.31
2022-11-15T18:31:23.062Z,97128.59
2022-11-15T18:34:32.336Z,97126.81
2022-11-15T18:37:35.568Z,97128.59
2022-11-15T18:40:38.146Z,97140.03
2022-11-15T18:43:41.334Z,97134.16
2022-11-15T18:46:51.529Z,97125.47
2022-11-15T18:49:53.891Z,97134.16
2022-11-15T18:52:57.545Z,97130.59
2022-11-15T18:56:05.362Z,97118.31
2022-11-15T18:59:09.241Z,97114.03
2022-11-15T19:02:13.322Z,97109.72
2022-11-15T19:05:18.808Z,97117.59
2022-11-15T19:08:21.118Z,97123.78
2022-11-15T19:11:32.695Z,97109.84
2022-11-15T19:14:35.185Z,97111.50
2022-11-15T19:17:38.260Z,97114.97
2022-11-15T19:20:41.137Z,97109.63
2022-11-15T19:23:44.275Z,97101.75
2022-11-15T19:26:47.319Z,97104.38
2022-11-15T19:29:50.063Z,97102.59
2022-11-15T19:32:53.087Z,97096.50
2022-11-15T19:36:07.555Z,97093.88
2022-11-15T19:39:13.277Z,97100.09
2022-11-15T19:42:16.156Z,97096.50
2022-11-15T19:45:19.739Z,97094.50
2022-11-15T19:48:23.865Z,97099.75
2022-11-15T19:51:29.290Z,97085.81
2022-11-15T19:54:31.633Z,97086.97
2022-11-15T19:57:36.004Z,97076.59
2022-11-15T20:00:39.310Z,97083.50
2022-11-15T20:03:41.760Z,97082.81
2022-11-15T20:06:44.119Z,97080.19
2022-11-15T20:09:46.837Z,97078.38
2022-11-15T20:12:49.216Z,97065.25
2022-11-15T20:15:53.374Z,97067.78
2022-11-15T20:18:57.288Z,97066.00
2022-11-15T20:21:59.603Z,97058.13
2022-11-15T20:25:02.166Z,97048.59
2022-11-15T20:28:08.145Z,97053.97
2022-11-15T20:31:12.282Z,97049.69
2022-11-15T20:34:14.689Z,97044.44
2022-11-15T20:37:17.114Z,97047.88
2022-11-15T20:40:19.900Z,97053.97
2022-11-15T20:43:22.663Z,97052.28
2022-11-15T20:46:25.343Z,97053.00
2022-11-15T20:49:28.651Z,97060.03
2022-11-15T20:52:30.900Z,97052.41
2022-11-15T20:55:33.656Z,97044.53
2022-11-15T20:58:37.371Z,97041.09
2022-11-15T21:01:40.032Z,97040.97
2022-11-15T21:04:42.886Z,97040.34
2022-11-15T21:07:45.573Z,97038.56
2022-11-15T21:11:10.185Z,97029.88
2022-11-15T21:14:12.370Z,97033.44
2022-11-15T21:17:15.151Z,97040.34
2022-11-15T21:20:17.506Z,97040.34
2022-11-15T21:23:19.604Z,97041.31
2022-11-15T21:26:21.676Z,97043.19
2022-11-15T21:29:24.474Z,97039.03
2022-11-15T21:32:26.626Z,97027.72
2022-11-15T21:35:29.195Z,97026.78
2022-11-15T21:38:31.724Z,97025.09
2022-11-15T21:41:34.532Z,97019.97
2022-11-15T21:44:36.611Z,97015.56
2022-11-15T21:47:42.056Z,97016.50
2022-11-15T21:50:59.097Z,97013.88
2022-11-15T21:54:01.443Z,97007.91
2022-11-15T21:57:03.560Z,97010.31
2022-11-15T22:00:24.260Z,96994.59
2022-11-15T22:03:26.374Z,96995.53
2022-11-15T22:06:28.590Z,96999.09
2022-11-15T22:09:30.601Z,96996.47
2022-11-15T22:12:32.805Z,96995.53
2022-11-15T22:15:34.821Z,96999.94
2022-11-15T22:18:37.924Z,96994.81
2022-11-15T22:21:41.046Z,96994.81
2022-11-15T22:24:43.167Z,96985.16
2022-11-15T22:27:45.348Z,96979.91
2022-11-15T22:30:48.590Z,96981.81
2022-11-15T22:33:50.770Z,96973.47
2022-11-15T22:37:19.283Z,96970.75
2022-11-15T22:40:14.945Z,96968.13
2022-11-15T22:43:19.513Z,96966.44
2022-11-15T22:46:21.603Z,96958.47
2022-11-15T22:49:23.717Z,96952.25
2022-11-15T22:52:25.811Z,96943.69
2022-11-15T22:55:27.887Z,96954.88
2022-11-15T22:58:32.154Z,96953.09
2022-11-15T23:01:34.639Z,96945.22
2022-11-15T23:04:36.745Z,96949.63
2022-11-15T23:07:38.823Z,96937.63
2022-11-15T23:10:59.701Z,96943.56
2022-11-15T23:14:01.789Z,96938.44
2022-11-15T23:17:03.991Z,96928.81
2022-11-15T23:20:29.161Z,96925.19
2022-11-15T23:23:28.887Z,96928.81
2022-11-15T23:26:31.792Z,96926.03
2022-11-15T23:29:54.484Z,96928.66
2022-11-15T23:33:14.961Z,96919.84
2022-11-15T23:36:17.016Z,96924.41
2022-11-15T23:39:19.544Z,96926.19
2022-11-15T23:42:21.585Z,96915.81
2022-11-15T23:45:23.640Z,96916.53
2022-11-15T23:48:27.581Z,96915.56
2022-11-15T23:51:29.787Z,96901.50
2022-11-15T23:54:31.917Z,96894.47
2022-11-15T23:57:34.003Z,96894.59
